Time;durP1;ratioP1;P1;durP2;ratioP2;P2;SDS_P1;SDS_P2;PMS_P1;PMS_P2;Temp;Humidity;BMP_temperature;BMP_pressure;BME280_temperature;BME280_humidity;BME280_pressure;Samples;Min_cycle;Max_cycle;Signal;HPM_P1;HPM_P2
2023/03/03 00:01:24;;;;;;;37.20;20.40;;;2.50;99.90;;;;;;4841764;29;21002;-57
2023/03/03 00:03:52;;;;;;;36.87;20.50;;;2.80;99.90;;;;;;4842201;29;20476;-57
2023/03/03 00:06:21;;;;;;;41.53;22.37;;;2.80;99.90;;;;;;4842296;29;20480;-57
2023/03/03 00:08:49;;;;;;;35.13;21.27;;;2.70;99.90;;;;;;4842138;29;20474;-57
2023/03/03 00:11:17;;;;;;;35.27;21.27;;;2.60;99.90;;;;;;4841239;29;20829;-57
2023/03/03 00:13:47;;;;;;;33.77;19.53;;;2.70;99.90;;;;;;4851725;29;20483;-57
2023/03/03 00:16:25;;;;;;;34.90;21.03;;;2.60;99.90;;;;;;4839583;29;20517;-57
2023/03/03 00:18:53;;;;;;;34.97;21.03;;;2.60;99.90;;;;;;4842072;29;20474;-58
2023/03/03 00:21:28;;;;;;;44.97;21.33;;;2.60;99.90;;;;;;4842145;29;20482;-58
2023/03/03 00:24:11;;;;;;;29.50;17.63;;;2.70;99.90;;;;;;4851210;29;20478;-57
2023/03/03 00:26:41;;;;;;;30.40;18.20;;;2.90;99.90;;;;;;4844871;29;20478;-57
2023/03/03 00:29:29;;;;;;;35.80;22.37;;;2.80;99.90;;;;;;4841764;29;20825;-57
2023/03/03 00:32:21;;;;;;;42.13;22.03;;;2.70;99.90;;;;;;4841684;29;20502;-57
2023/03/03 00:34:49;;;;;;;33.10;18.13;;;2.60;99.90;;;;;;4841797;29;21060;-57
2023/03/03 00:37:30;;;;;;;38.37;22.87;;;2.80;99.90;;;;;;4840789;29;21027;-57
2023/03/03 00:40:19;;;;;;;33.40;19.67;;;2.90;99.90;;;;;;4842213;29;20472;-57
2023/03/03 00:42:50;;;;;;;33.23;20.73;;;2.80;99.90;;;;;;4850218;29;20499;-57
2023/03/03 00:45:35;;;;;;;31.73;18.77;;;2.80;99.90;;;;;;4860403;29;20472;-57
2023/03/03 00:48:25;;;;;;;32.63;20.67;;;3.00;99.90;;;;;;4859098;29;20553;-57
2023/03/03 00:50:55;;;;;;;37.63;22.33;;;2.90;99.90;;;;;;4860591;29;20478;-58
2023/03/03 00:53:24;;;;;;;42.93;22.60;;;2.70;99.90;;;;;;4853436;29;20484;-57
2023/03/03 00:55:53;;;;;;;39.77;21.87;;;2.60;99.90;;;;;;4850445;29;20493;-57
2023/03/03 00:58:23;;;;;;;37.17;21.40;;;2.60;99.90;;;;;;4840523;29;20491;-58
2023/03/03 01:00:53;;;;;;;33.33;20.40;;;2.60;99.90;;;;;;4840094;29;20532;-57
2023/03/03 01:03:27;;;;;;;30.37;19.53;;;2.60;99.90;;;;;;4840350;29;20476;-57
2023/03/03 01:05:56;;;;;;;31.03;20.57;;;2.60;99.90;;;;;;4841786;29;20983;-57
2023/03/03 01:08:24;;;;;;;30.90;20.30;;;2.70;99.90;;;;;;4836102;29;20475;-57
2023/03/03 01:10:55;;;;;;;32.07;20.53;;;2.60;99.90;;;;;;4830807;29;20512;-57
2023/03/03 01:13:27;;;;;;;33.43;20.60;;;2.60;99.90;;;;;;4855911;29;20473;-57
2023/03/03 01:15:55;;;;;;;34.00;19.17;;;2.70;99.90;;;;;;4863623;29;20850;-57
2023/03/03 01:18:23;;;;;;;31.07;20.10;;;2.50;99.90;;;;;;4863651;29;20924;-57
2023/03/03 01:20:53;;;;;;;31.47;18.37;;;2.60;99.90;;;;;;4862359;29;20587;-57
2023/03/03 01:23:21;;;;;;;31.90;18.97;;;2.50;99.90;;;;;;4860488;29;20470;-57
2023/03/03 01:25:49;;;;;;;34.47;20.43;;;2.80;99.90;;;;;;4856396;29;20509;-57
2023/03/03 01:28:17;;;;;;;33.37;20.53;;;2.60;99.90;;;;;;4862239;29;20486;-57
2023/03/03 01:30:45;;;;;;;36.93;20.80;;;2.50;99.90;;;;;;4862857;29;20505;-57
2023/03/03 01:33:13;;;;;;;38.13;20.47;;;2.50;99.90;;;;;;4863365;29;20994;-57
2023/03/03 01:35:44;;;;;;;31.17;18.67;;;2.40;99.90;;;;;;4852498;29;20507;-57
2023/03/03 01:38:14;;;;;;;31.23;20.77;;;2.40;99.90;;;;;;4843661;29;20530;-57
2023/03/03 01:40:42;;;;;;;32.03;19.83;;;2.30;99.90;;;;;;4845367;29;20470;-57
2023/03/03 01:43:14;;;;;;;31.10;20.43;;;2.30;99.90;;;;;;4855433;29;20463;-58
2023/03/03 01:46:00;;;;;;;29.53;19.87;;;2.40;99.90;;;;;;4863282;29;20488;-58
2023/03/03 01:48:31;;;;;;;28.70;18.20;;;2.30;99.90;;;;;;4862731;29;20470;-57
2023/03/03 01:51:02;;;;;;;33.20;20.83;;;2.40;99.90;;;;;;4848253;29;20565;-57
2023/03/03 01:53:36;;;;;;;37.77;20.57;;;2.40;99.90;;;;;;4850945;29;20473;-57
2023/03/03 01:56:07;;;;;;;38.60;21.20;;;2.30;99.90;;;;;;4851660;29;20496;-57
2023/03/03 01:58:41;;;;;;;34.60;20.77;;;2.40;99.90;;;;;;4842974;29;20493;-57
2023/03/03 02:01:12;;;;;;;46.63;22.60;;;2.50;99.90;;;;;;4844001;29;20485;-57
2023/03/03 02:03:41;;;;;;;44.50;21.37;;;2.40;99.90;;;;;;4842639;29;20832;-57
2023/03/03 02:06:14;;;;;;;44.97;20.70;;;2.30;99.90;;;;;;4844224;29;20830;-57
2023/03/03 02:08:51;;;;;;;40.33;20.70;;;2.30;99.90;;;;;;4844171;29;21024;-57
2023/03/03 02:11:19;;;;;;;34.20;21.20;;;2.30;99.90;;;;;;4849263;29;20490;-57
2023/03/03 02:13:47;;;;;;;44.97;20.63;;;2.20;99.90;;;;;;4854972;29;20493;-57
2023/03/03 02:16:16;;;;;;;35.03;21.80;;;2.20;99.90;;;;;;4862306;29;20499;-58
2023/03/03 02:18:44;;;;;;;33.30;20.53;;;2.20;99.90;;;;;;4861188;29;20479;-57
2023/03/03 02:21:15;;;;;;;36.23;21.67;;;2.30;99.90;;;;;;4862535;29;20478;-57
2023/03/03 02:23:52;;;;;;;42.37;20.80;;;2.30;99.90;;;;;;4858019;29;20509;-57
2023/03/03 02:26:25;;;;;;;38.33;20.97;;;2.30;99.90;;;;;;4847783;29;20476;-57
2023/03/03 02:28:59;;;;;;;32.97;21.10;;;2.20;99.90;;;;;;4842803;29;20493;-57
2023/03/03 02:31:30;;;;;;;40.00;21.27;;;2.20;99.90;;;;;;4833581;29;20489;-57
2023/03/03 02:33:59;;;;;;;37.13;21.57;;;2.20;99.90;;;;;;4824295;29;20481;-57
2023/03/03 02:36:30;;;;;;;29.23;18.60;;;2.30;99.90;;;;;;4825408;29;20494;-57
2023/03/03 02:39:04;;;;;;;34.80;21.33;;;2.50;99.90;;;;;;4825668;29;20985;-58
2023/03/03 02:41:38;;;;;;;28.83;18.77;;;2.40;99.90;;;;;;4839602;29;20469;-57
2023/03/03 02:44:09;;;;;;;33.53;21.30;;;2.50;99.90;;;;;;4846868;29;20475;-57
2023/03/03 02:46:39;;;;;;;33.17;21.10;;;2.60;99.90;;;;;;4860680;29;20513;-57
2023/03/03 02:49:09;;;;;;;35.13;21.37;;;2.50;99.90;;;;;;4846523;29;20474;-57
2023/03/03 02:51:38;;;;;;;38.10;20.47;;;2.40;99.90;;;;;;4843290;29;21048;-57
2023/03/03 02:54:07;;;;;;;34.47;20.27;;;2.40;99.90;;;;;;4856312;29;20468;-57
2023/03/03 02:56:37;;;;;;;31.37;19.33;;;2.30;99.90;;;;;;4841627;29;20502;-57
2023/03/03 02:59:06;;;;;;;42.17;18.57;;;2.30;99.90;;;;;;4829939;29;20474;-58
2023/03/03 03:01:39;;;;;;;25.87;17.20;;;2.20;99.90;;;;;;4823253;29;20535;-58
2023/03/03 03:04:14;;;;;;;25.17;16.87;;;2.30;99.90;;;;;;4823895;29;20479;-58
2023/03/03 03:06:45;;;;;;;33.73;17.33;;;2.30;99.90;;;;;;4823662;29;20486;-57
2023/03/03 03:09:16;;;;;;;35.57;17.40;;;2.30;99.90;;;;;;4823802;29;20502;-57
2023/03/03 03:11:46;;;;;;;30.83;17.47;;;2.20;99.90;;;;;;4839898;29;21038;-57
2023/03/03 03:14:17;;;;;;;34.10;15.37;;;2.10;99.90;;;;;;4854312;29;20487;-58
2023/03/03 03:16:45;;;;;;;33.20;15.60;;;2.00;99.90;;;;;;4861560;29;20857;-57
2023/03/03 03:19:13;;;;;;;31.30;16.00;;;1.90;99.90;;;;;;4855547;29;20462;-57
2023/03/03 03:21:43;;;;;;;29.27;16.63;;;1.90;99.90;;;;;;4841557;29;21513;-57
2023/03/03 03:24:11;;;;;;;34.13;15.40;;;1.90;99.90;;;;;;4859834;29;20876;-57
2023/03/03 03:26:45;;;;;;;31.80;15.67;;;1.90;99.90;;;;;;4837634;29;20478;-57
2023/03/03 03:29:14;;;;;;;27.20;14.77;;;1.90;99.90;;;;;;4840889;29;20568;-58
2023/03/03 03:31:43;;;;;;;22.50;13.87;;;1.90;99.90;;;;;;4842231;29;20489;-58
2023/03/03 03:34:11;;;;;;;23.57;16.63;;;2.10;99.90;;;;;;4842814;29;20466;-57
2023/03/03 03:36:39;;;;;;;32.37;17.90;;;2.20;99.90;;;;;;4841337;29;20494;-57
2023/03/03 03:39:08;;;;;;;36.80;17.73;;;2.20;99.90;;;;;;4841470;29;20530;-58
2023/03/03 03:41:40;;;;;;;27.63;17.80;;;2.10;99.90;;;;;;4841441;29;20474;-58
2023/03/03 03:44:09;;;;;;;41.30;17.27;;;2.20;99.90;;;;;;4849492;29;20556;-58
2023/03/03 03:46:38;;;;;;;33.87;17.87;;;2.20;99.90;;;;;;4841184;29;20502;-57
2023/03/03 03:49:06;;;;;;;25.97;16.73;;;2.10;99.90;;;;;;4841275;29;20474;-58
2023/03/03 03:51:37;;;;;;;29.20;17.60;;;2.10;99.90;;;;;;4841099;29;20994;-57
2023/03/03 03:54:05;;;;;;;20.97;14.30;;;2.10;99.90;;;;;;4857248;29;20488;-57
2023/03/03 03:56:35;;;;;;;23.50;15.93;;;2.20;99.90;;;;;;4857028;29;20495;-57
2023/03/03 03:59:06;;;;;;;23.43;15.83;;;2.10;99.90;;;;;;4859615;29;20480;-57
2023/03/03 04:01:36;;;;;;;21.40;15.03;;;2.10;99.90;;;;;;4848191;29;20497;-57
2023/03/03 04:04:04;;;;;;;21.53;13.23;;;2.30;99.90;;;;;;4841150;29;20512;-57
2023/03/03 04:06:33;;;;;;;23.10;15.90;;;2.40;99.90;;;;;;4840868;29;20480;-57
2023/03/03 04:09:01;;;;;;;20.90;14.83;;;2.40;99.90;;;;;;4840930;29;20480;-57
2023/03/03 04:11:30;;;;;;;23.10;15.13;;;2.40;99.90;;;;;;4848822;29;20472;-57
2023/03/03 04:13:58;;;;;;;23.37;14.13;;;2.20;99.90;;;;;;4851518;29;20511;-57
2023/03/03 04:16:27;;;;;;;17.80;12.93;;;2.10;99.90;;;;;;4859123;29;20507;-57
2023/03/03 04:18:57;;;;;;;16.53;13.07;;;2.00;99.90;;;;;;4859322;29;20467;-57
2023/03/03 04:21:26;;;;;;;18.87;12.90;;;2.20;99.90;;;;;;4859193;29;20484;-57
2023/03/03 04:23:57;;;;;;;18.27;12.37;;;2.20;99.90;;;;;;4853836;29;20472;-57
2023/03/03 04:26:26;;;;;;;19.67;12.77;;;2.10;99.90;;;;;;4845178;29;20478;-58
2023/03/03 04:28:55;;;;;;;22.03;12.87;;;2.10;99.90;;;;;;4840839;29;20985;-58
2023/03/03 04:31:24;;;;;;;20.70;12.33;;;2.10;99.90;;;;;;4840327;29;20489;-57
2023/03/03 04:33:53;;;;;;;19.73;12.70;;;2.10;99.90;;;;;;4840704;29;20533;-57
2023/03/03 04:36:24;;;;;;;15.83;11.33;;;2.00;99.90;;;;;;4840735;29;20537;-57
2023/03/03 04:38:52;;;;;;;17.77;11.73;;;2.00;99.90;;;;;;4841797;29;20483;-57
2023/03/03 04:41:20;;;;;;;17.93;13.37;;;2.00;99.90;;;;;;4849778;29;21075;-57
2023/03/03 04:43:48;;;;;;;18.40;12.87;;;2.00;99.90;;;;;;4856366;29;20567;-57
2023/03/03 04:46:17;;;;;;;16.97;12.63;;;2.00;99.90;;;;;;4862946;29;20543;-57
2023/03/03 04:48:45;;;;;;;16.57;11.50;;;2.20;99.90;;;;;;4863968;29;20461;-57
2023/03/03 04:51:15;;;;;;;17.93;12.07;;;2.20;99.90;;;;;;4864382;29;20476;-58
2023/03/03 04:53:46;;;;;;;18.50;14.13;;;2.30;99.90;;;;;;4855412;29;21060;-57
2023/03/03 04:56:14;;;;;;;19.77;14.10;;;2.20;99.90;;;;;;4850326;29;20481;-57
2023/03/03 04:58:43;;;;;;;19.90;12.70;;;2.20;99.90;;;;;;4845583;29;20496;-57
2023/03/03 05:01:13;;;;;;;23.47;14.80;;;2.20;99.90;;;;;;4843865;29;20498;-58
2023/03/03 05:03:41;;;;;;;24.33;14.90;;;2.20;99.90;;;;;;4843983;29;20477;-57
2023/03/03 05:06:10;;;;;;;20.20;14.80;;;2.10;99.90;;;;;;4843979;29;20477;-57
2023/03/03 05:08:38;;;;;;;23.63;14.57;;;2.10;99.90;;;;;;4845371;29;20469;-57
2023/03/03 05:11:07;;;;;;;26.43;13.43;;;2.30;99.90;;;;;;4849293;29;20468;-57
2023/03/03 05:13:35;;;;;;;21.20;13.87;;;2.20;99.90;;;;;;4855748;29;20500;-57
2023/03/03 05:16:04;;;;;;;20.20;14.30;;;2.20;99.90;;;;;;4863677;29;20957;-57
2023/03/03 05:18:32;;;;;;;19.60;13.07;;;2.30;99.90;;;;;;4863685;29;21066;-57
2023/03/03 05:21:00;;;;;;;21.33;13.67;;;2.30;99.90;;;;;;4850626;29;20485;-57
2023/03/03 05:23:28;;;;;;;23.80;16.23;;;2.70;99.90;;;;;;4856452;29;20487;-57
2023/03/03 05:25:56;;;;;;;20.67;13.27;;;2.50;99.90;;;;;;4853325;29;20472;-57
2023/03/03 05:28:26;;;;;;;28.13;16.57;;;2.60;99.90;;;;;;4845011;29;20477;-57
2023/03/03 05:30:54;;;;;;;25.30;15.37;;;2.40;99.90;;;;;;4844638;29;20480;-57
2023/03/03 05:33:22;;;;;;;19.73;13.53;;;2.20;99.90;;;;;;4845251;29;20542;-57
2023/03/03 05:35:54;;;;;;;22.57;14.90;;;2.50;99.90;;;;;;4844632;29;20476;-57
2023/03/03 05:38:22;;;;;;;23.13;16.13;;;2.90;99.90;;;;;;4844786;29;20573;-58
2023/03/03 05:40:50;;;;;;;24.60;15.90;;;2.70;99.90;;;;;;4846439;29;20491;-57
2023/03/03 05:43:18;;;;;;;27.30;17.80;;;2.80;99.90;;;;;;4855543;29;20984;-57
2023/03/03 05:45:48;;;;;;;28.43;15.10;;;3.00;99.90;;;;;;4844397;29;20499;-57
2023/03/03 05:48:16;;;;;;;29.37;17.50;;;2.70;99.90;;;;;;4844914;29;20486;-57
2023/03/03 05:50:44;;;;;;;22.17;14.27;;;2.40;99.90;;;;;;4844230;29;20469;-57
2023/03/03 05:53:12;;;;;;;21.60;14.47;;;2.40;99.90;;;;;;4850947;29;20490;-58
2023/03/03 05:55:40;;;;;;;25.43;16.30;;;2.40;99.90;;;;;;4849537;29;20827;-57
2023/03/03 05:58:08;;;;;;;26.40;17.10;;;2.50;99.90;;;;;;4829120;29;20523;-58
2023/03/03 06:00:37;;;;;;;26.10;17.07;;;2.60;99.90;;;;;;4830029;29;20478;-57
2023/03/03 06:03:06;;;;;;;24.90;16.73;;;2.60;99.90;;;;;;4837146;29;20965;-57
2023/03/03 06:05:34;;;;;;;32.83;15.10;;;2.30;99.90;;;;;;4844148;29;20471;-57
2023/03/03 06:08:02;;;;;;;27.77;16.17;;;2.20;99.90;;;;;;4844606;29;20478;-58
2023/03/03 06:10:31;;;;;;;22.47;13.67;;;2.10;99.90;;;;;;4826122;29;20871;-58
2023/03/03 06:13:03;;;;;;;21.10;15.03;;;2.00;99.90;;;;;;4842867;29;20482;-57
2023/03/03 06:15:31;;;;;;;18.37;13.83;;;2.20;99.90;;;;;;4843988;29;20472;-57
2023/03/03 06:17:59;;;;;;;17.97;13.37;;;2.10;99.90;;;;;;4844008;29;20500;-57
2023/03/03 06:20:29;;;;;;;21.27;11.33;;;2.00;99.90;;;;;;4844227;29;20482;-58
2023/03/03 06:22:57;;;;;;;23.43;12.60;;;2.50;99.90;;;;;;4846710;29;20474;-57
2023/03/03 06:25:25;;;;;;;21.60;14.50;;;2.30;99.90;;;;;;4845316;29;20487;-57
2023/03/03 06:27:53;;;;;;;18.70;14.37;;;2.20;99.90;;;;;;4839915;29;20471;-57
2023/03/03 06:30:21;;;;;;;18.67;14.20;;;2.20;99.90;;;;;;4829625;29;20968;-57
2023/03/03 06:32:49;;;;;;;21.23;14.47;;;2.40;99.90;;;;;;4834734;29;20487;-58
2023/03/03 06:35:18;;;;;;;25.07;14.00;;;2.30;99.90;;;;;;4830674;29;20476;-57
2023/03/03 06:37:49;;;;;;;21.23;13.20;;;2.20;99.90;;;;;;4834296;29;20511;-57
2023/03/03 06:40:17;;;;;;;17.83;14.27;;;2.10;99.90;;;;;;4825536;29;20471;-57
2023/03/03 06:42:45;;;;;;;20.67;14.53;;;2.30;99.90;;;;;;4841275;29;20479;-57
2023/03/03 06:45:14;;;;;;;19.87;14.97;;;2.60;99.90;;;;;;4835709;29;20802;-57
2023/03/03 06:47:42;;;;;;;27.70;13.40;;;2.60;99.90;;;;;;4834000;29;20831;-57
2023/03/03 06:50:12;;;;;;;18.43;12.43;;;2.30;99.90;;;;;;4833460;29;20469;-58
2023/03/03 06:52:40;;;;;;;20.40;11.83;;;2.10;99.90;;;;;;4836372;29;20476;-57
2023/03/03 06:55:18;;;;;;;17.87;11.73;;;2.00;99.90;;;;;;4842509;29;20971;-57
2023/03/03 06:57:46;;;;;;;16.83;10.93;;;2.00;99.90;;;;;;4834003;29;20466;-58
2023/03/03 07:00:19;;;;;;;18.23;11.33;;;1.90;99.90;;;;;;4832480;29;20477;-57
2023/03/03 07:02:47;;;;;;;14.17;10.77;;;1.90;99.90;;;;;;4842911;29;20480;-58
2023/03/03 07:05:17;;;;;;;13.93;11.30;;;1.90;99.90;;;;;;4843442;29;20517;-58
2023/03/03 07:07:45;;;;;;;13.77;10.03;;;2.20;99.90;;;;;;4843433;29;20476;-57
2023/03/03 07:10:22;;;;;;;13.67;10.20;;;2.50;99.90;;;;;;4843284;29;20480;-57
2023/03/03 07:12:50;;;;;;;16.70;11.73;;;2.60;99.90;;;;;;4850840;29;20488;-57
2023/03/03 07:15:21;;;;;;;13.57;10.87;;;2.40;99.90;;;;;;4840307;29;20834;-58
2023/03/03 07:17:53;;;;;;;18.80;13.37;;;2.50;99.90;;;;;;4840859;29;20495;-57
2023/03/03 07:20:23;;;;;;;19.70;12.53;;;2.80;99.90;;;;;;4843301;29;21009;-57
2023/03/03 07:22:52;;;;;;;24.43;12.53;;;2.80;99.90;;;;;;4840506;29;20482;-58
2023/03/03 07:25:30;;;;;;;18.03;13.00;;;2.60;99.90;;;;;;4848010;29;20472;-57
2023/03/03 07:28:07;;;;;;;22.97;12.40;;;2.50;99.90;;;;;;4843027;29;20476;-58
2023/03/03 07:30:36;;;;;;;18.43;12.30;;;2.40;99.90;;;;;;4842599;29;20481;-57
2023/03/03 07:33:09;;;;;;;18.37;10.47;;;2.40;99.90;;;;;;4842836;29;20534;-58
2023/03/03 07:35:41;;;;;;;27.17;12.47;;;2.60;99.90;;;;;;4834258;29;20551;-57
2023/03/03 07:38:35;;;;;;;14.30;11.20;;;2.50;99.90;;;;;;4836153;29;20547;-57
2023/03/03 07:41:12;;;;;;;17.97;9.70;;;2.50;99.90;;;;;;4840463;29;20581;-58
2023/03/03 07:43:43;;;;;;;17.67;11.30;;;2.50;99.90;;;;;;4841196;29;20490;-57
2023/03/03 07:46:26;;;;;;;16.13;10.67;;;2.50;99.90;;;;;;4842036;29;20476;-58
2023/03/03 07:48:57;;;;;;;15.13;11.37;;;2.40;99.90;;;;;;4842667;29;20518;-57
2023/03/03 07:51:27;;;;;;;13.80;10.03;;;2.40;99.90;;;;;;4837568;29;20868;-58
2023/03/03 07:54:14;;;;;;;19.07;10.67;;;2.40;99.90;;;;;;4855220;29;20479;-57
2023/03/03 07:56:44;;;;;;;18.60;10.80;;;2.50;99.90;;;;;;4842278;29;20491;-57
2023/03/03 07:59:20;;;;;;;14.47;10.17;;;2.50;99.90;;;;;;4832122;29;20995;-58
2023/03/03 08:01:54;;;;;;;17.30;11.20;;;2.50;99.90;;;;;;4842718;29;20496;-57
2023/03/03 08:04:24;;;;;;;17.47;10.30;;;2.70;99.90;;;;;;4833379;29;21035;-58
2023/03/03 08:06:55;;;;;;;17.47;11.00;;;2.60;99.90;;;;;;4825031;29;20628;-58
2023/03/03 08:09:46;;;;;;;19.87;10.67;;;2.60;99.90;;;;;;4824837;29;20973;-58
2023/03/03 08:12:46;;;;;;;20.50;10.47;;;2.90;99.90;;;;;;4836014;29;20461;-58
2023/03/03 08:15:25;;;;;;;18.33;9.90;;;2.80;99.90;;;;;;4802747;29;20506;-57
2023/03/03 08:17:55;;;;;;;18.03;10.77;;;3.00;99.90;;;;;;4818875;29;20970;-57
2023/03/03 08:20:44;;;;;;;15.67;10.57;;;3.00;99.90;;;;;;4824210;29;20555;-57
2023/03/03 08:23:13;;;;;;;17.30;11.27;;;3.00;99.90;;;;;;4838450;29;20547;-57
2023/03/03 08:25:42;;;;;;;15.57;10.17;;;2.90;99.90;;;;;;4844285;29;20478;-58
2023/03/03 08:28:12;;;;;;;18.23;11.03;;;2.90;99.90;;;;;;4842089;29;21031;-57
2023/03/03 08:30:41;;;;;;;28.97;12.27;;;2.90;99.90;;;;;;4841521;29;20559;-57
2023/03/03 08:33:09;;;;;;;19.33;10.97;;;2.90;99.90;;;;;;4842302;29;20810;-57
2023/03/03 08:35:38;;;;;;;20.30;11.23;;;3.00;99.90;;;;;;4849249;29;20877;-57
2023/03/03 08:38:06;;;;;;;22.33;11.47;;;3.00;99.90;;;;;;4846071;29;20482;-58
2023/03/03 08:40:35;;;;;;;25.37;12.53;;;3.20;99.90;;;;;;4860027;29;20503;-57
2023/03/03 08:43:04;;;;;;;24.23;13.60;;;3.20;99.90;;;;;;4842034;29;20471;-57
2023/03/03 08:45:34;;;;;;;29.20;14.97;;;3.20;99.90;;;;;;4837857;29;20483;-58
2023/03/03 08:48:02;;;;;;;28.93;15.17;;;3.30;99.90;;;;;;4824035;29;20811;-58
2023/03/03 08:50:33;;;;;;;34.93;16.90;;;3.30;99.90;;;;;;4838307;29;20590;-57
2023/03/03 08:53:01;;;;;;;37.17;17.93;;;3.30;99.90;;;;;;4844882;29;20488;-57
2023/03/03 08:55:30;;;;;;;32.70;16.90;;;3.40;99.90;;;;;;4850035;29;20467;-58
2023/03/03 08:57:58;;;;;;;40.27;18.30;;;3.50;99.90;;;;;;4841813;29;20471;-58
2023/03/03 09:00:26;;;;;;;42.13;19.03;;;3.60;99.90;;;;;;4841484;29;20580;-58
2023/03/03 09:02:55;;;;;;;42.83;19.20;;;3.60;99.90;;;;;;4841784;29;20475;-57
2023/03/03 09:05:24;;;;;;;40.33;18.10;;;3.70;99.90;;;;;;4841686;29;20488;-58
2023/03/03 09:07:53;;;;;;;38.83;18.00;;;3.80;99.90;;;;;;4838835;29;20485;-57
2023/03/03 09:10:26;;;;;;;42.57;19.83;;;3.90;99.90;;;;;;4841420;29;20475;-58
2023/03/03 09:12:57;;;;;;;42.67;19.80;;;3.80;99.90;;;;;;4847696;29;20981;-57
2023/03/03 09:15:27;;;;;;;47.80;20.17;;;3.90;99.90;;;;;;4837336;29;20513;-57
2023/03/03 09:18:00;;;;;;;44.97;20.57;;;3.90;99.90;;;;;;4859406;29;20570;-57
2023/03/03 09:20:33;;;;;;;49.93;20.97;;;3.90;99.90;;;;;;4843970;29;20487;-58
2023/03/03 09:23:36;;;;;;;52.30;20.53;;;4.00;99.90;;;;;;4849717;29;20562;-58
2023/03/03 09:26:27;;;;;;;49.87;19.97;;;4.10;99.90;;;;;;4844938;29;20487;-57
2023/03/03 09:29:00;;;;;;;48.27;20.27;;;4.00;99.90;;;;;;4855034;29;20511;-58
2023/03/03 09:31:38;;;;;;;46.27;18.97;;;4.00;99.90;;;;;;4854580;29;20487;-58
2023/03/03 09:34:18;;;;;;;39.77;16.80;;;4.00;99.90;;;;;;4836830;29;20500;-58
2023/03/03 09:36:46;;;;;;;29.00;14.10;;;4.10;99.90;;;;;;4844575;29;20479;-58
2023/03/03 09:39:18;;;;;;;39.60;17.03;;;4.10;99.90;;;;;;4844676;29;20539;-58
2023/03/03 09:42:20;;;;;;;28.20;12.63;;;4.10;99.90;;;;;;4853684;29;20475;-58
2023/03/03 09:45:22;;;;;;;22.33;11.57;;;4.20;99.90;;;;;;4847812;29;20480;-58
2023/03/03 09:48:20;;;;;;;23.33;11.27;;;4.40;99.90;;;;;;4826491;29;20488;-58
2023/03/03 09:51:02;;;;;;;23.13;10.70;;;4.40;99.90;;;;;;4835764;29;20842;-58
2023/03/03 09:53:47;;;;;;;21.07;9.97;;;4.40;99.90;;;;;;4849513;29;20483;-57
2023/03/03 09:56:21;;;;;;;25.30;11.33;;;4.60;99.90;;;;;;4851098;29;21026;-58
2023/03/03 09:59:04;;;;;;;20.27;10.17;;;4.60;99.90;;;;;;4863086;29;20974;-58
2023/03/03 10:01:50;;;;;;;16.57;8.90;;;4.70;99.90;;;;;;4842273;29;20508;-58
2023/03/03 10:04:42;;;;;;;19.30;10.43;;;4.80;99.90;;;;;;4838439;29;20546;-57
2023/03/03 10:07:25;;;;;;;13.50;7.63;;;4.80;99.90;;;;;;4843184;29;20477;-58
2023/03/03 10:10:28;;;;;;;12.80;7.43;;;5.00;99.90;;;;;;4843949;29;20464;-58
2023/03/03 10:13:06;;;;;;;14.30;7.93;;;5.20;99.90;;;;;;4858708;29;20253;-58
2023/03/03 10:15:41;;;;;;;14.40;8.17;;;5.20;99.90;;;;;;4846403;29;20222;-58
2023/03/03 10:18:23;;;;;;;14.13;7.20;;;5.30;99.90;;;;;;4844219;29;20476;-58
2023/03/03 10:21:08;;;;;;;12.00;6.53;;;5.50;99.90;;;;;;4843520;29;20246;-57
2023/03/03 10:23:54;;;;;;;8.27;5.80;;;5.70;99.90;;;;;;4848208;29;20271;-58
2023/03/03 10:26:45;;;;;;;10.63;5.87;;;5.70;99.90;;;;;;4855618;29;20478;-58
2023/03/03 10:29:39;;;;;;;8.43;5.43;;;5.70;99.90;;;;;;4851497;29;20293;-57
2023/03/03 10:32:35;;;;;;;10.90;6.10;;;5.70;99.90;;;;;;4842502;29;20237;-58
2023/03/03 10:35:16;;;;;;;10.43;5.57;;;5.80;99.90;;;;;;4823683;29;20243;-58
2023/03/03 10:38:01;;;;;;;8.90;5.77;;;5.90;99.90;;;;;;4825183;29;20247;-57
2023/03/03 10:40:35;;;;;;;10.77;6.37;;;5.90;99.90;;;;;;4830894;29;20277;-58
2023/03/03 10:43:23;;;;;;;8.53;5.63;;;5.90;99.90;;;;;;4843914;29;20733;-58
2023/03/03 10:46:15;;;;;;;10.63;5.90;;;6.00;99.90;;;;;;4843843;29;20239;-58
2023/03/03 10:48:56;;;;;;;8.37;5.30;;;6.00;99.90;;;;;;4843231;29;20245;-58
2023/03/03 10:51:30;;;;;;;7.27;4.93;;;6.10;99.90;;;;;;4843887;29;20236;-58
2023/03/03 10:54:17;;;;;;;8.60;5.80;;;6.10;99.90;;;;;;4850963;29;20245;-57
2023/03/03 10:56:52;;;;;;;9.77;5.73;;;6.20;99.90;;;;;;4845736;29;20231;-58
2023/03/03 10:59:40;;;;;;;7.17;4.97;;;6.30;99.90;;;;;;4843754;29;20889;-58
2023/03/03 11:02:18;;;;;;;11.27;5.83;;;6.30;99.90;;;;;;4845932;29;20226;-58
2023/03/03 11:05:12;;;;;;;8.10;5.10;;;6.50;99.90;;;;;;4843155;29;20599;-58
2023/03/03 11:07:44;;;;;;;7.63;4.73;;;6.60;99.90;;;;;;4837149;29;20349;-58
2023/03/03 11:10:33;;;;;;;7.37;4.53;;;6.70;99.90;;;;;;4835118;29;20235;-58
2023/03/03 11:13:14;;;;;;;7.47;4.43;;;6.90;99.90;;;;;;4840768;29;20254;-58
2023/03/03 11:15:53;;;;;;;6.53;4.47;;;7.00;99.90;;;;;;4840668;29;20236;-58
2023/03/03 11:18:35;;;;;;;8.07;4.80;;;7.10;99.90;;;;;;4838690;29;20247;-58
2023/03/03 11:21:13;;;;;;;6.03;3.80;;;7.20;99.90;;;;;;4838610;29;20270;-58
2023/03/03 11:24:06;;;;;;;6.73;4.00;;;7.50;99.90;;;;;;4839187;29;20259;-58
2023/03/03 11:26:53;;;;;;;7.17;3.80;;;7.70;99.90;;;;;;4845307;29;20243;-58
2023/03/03 11:29:50;;;;;;;6.83;4.07;;;7.80;99.90;;;;;;4843043;29;20277;-58
2023/03/03 11:32:26;;;;;;;6.90;3.93;;;7.80;99.90;;;;;;4837681;29;20227;-58
2023/03/03 11:35:14;;;;;;;9.20;3.67;;;7.90;99.90;;;;;;4835955;29;20227;-58
2023/03/03 11:37:50;;;;;;;7.30;3.10;;;7.90;99.90;;;;;;4838456;29;20236;-58
2023/03/03 11:40:22;;;;;;;6.03;3.40;;;7.80;99.90;;;;;;4834905;29;20307;-58
2023/03/03 11:43:01;;;;;;;5.33;3.03;;;7.80;99.90;;;;;;4834813;29;20235;-58
2023/03/03 11:45:39;;;;;;;7.00;3.10;;;7.70;99.90;;;;;;4842268;29;20243;-58
2023/03/03 11:48:16;;;;;;;5.20;3.20;;;7.60;99.90;;;;;;4835528;29;20282;-58
2023/03/03 11:50:53;;;;;;;7.60;3.40;;;7.60;99.90;;;;;;4842222;29;20608;-58
2023/03/03 11:53:31;;;;;;;6.53;3.43;;;7.50;99.90;;;;;;4852277;29;20230;-58
2023/03/03 11:56:06;;;;;;;5.00;2.93;;;7.40;99.90;;;;;;4852814;29;20283;-58
2023/03/03 11:58:40;;;;;;;4.77;2.47;;;7.40;99.90;;;;;;4842312;29;20779;-58
2023/03/03 12:01:18;;;;;;;6.60;2.87;;;7.40;99.90;;;;;;4840120;29;20242;-58
2023/03/03 12:03:53;;;;;;;6.07;2.40;;;7.60;99.90;;;;;;4836041;29;20238;-58
2023/03/03 12:06:28;;;;;;;3.17;2.30;;;7.70;99.90;;;;;;4833715;29;20242;-58
2023/03/03 12:09:22;;;;;;;3.53;2.20;;;7.70;99.90;;;;;;4838587;29;20727;-58
2023/03/03 12:11:54;;;;;;;3.10;2.47;;;7.70;99.90;;;;;;4835206;29;20233;-57
2023/03/03 12:14:47;;;;;;;4.90;2.00;;;7.80;99.90;;;;;;4855909;29;20622;-58
2023/03/03 12:17:29;;;;;;;5.93;1.90;;;7.80;99.90;;;;;;4850939;29;20226;-58
2023/03/03 12:20:09;;;;;;;3.97;1.90;;;7.80;99.90;;;;;;4846296;29;20240;-58
2023/03/03 12:22:49;;;;;;;8.93;2.10;;;7.90;99.90;;;;;;4843261;29;20246;-57
2023/03/03 12:25:37;;;;;;;2.63;1.50;;;7.80;99.90;;;;;;4840842;29;20259;-58
2023/03/03 12:28:14;;;;;;;3.63;1.93;;;7.80;99.90;;;;;;4835361;29;20231;-58
2023/03/03 12:31:24;;;;;;;3.03;1.73;;;7.80;99.90;;;;;;4835030;29;20231;-58
2023/03/03 12:33:57;;;;;;;4.30;1.50;;;7.80;99.90;;;;;;4795148;29;20243;-58
2023/03/03 12:36:45;;;;;;;2.50;1.20;;;7.80;99.90;;;;;;4831552;29;20263;-58
2023/03/03 12:39:24;;;;;;;4.63;1.57;;;7.60;99.90;;;;;;4838070;29;20235;-58
2023/03/03 12:42:10;;;;;;;2.73;1.63;;;7.60;99.90;;;;;;4836651;29;20295;-58
2023/03/03 12:44:44;;;;;;;3.33;1.80;;;7.50;99.90;;;;;;4833500;29;20235;-57
2023/03/03 12:47:18;;;;;;;5.13;1.90;;;7.60;99.90;;;;;;4833031;29;20345;-58
2023/03/03 12:50:00;;;;;;;4.47;2.17;;;7.50;99.90;;;;;;4833021;29;20287;-58
2023/03/03 12:52:50;;;;;;;4.47;2.03;;;7.50;99.90;;;;;;4836599;29;20280;-58
2023/03/03 12:55:26;;;;;;;5.83;2.20;;;7.40;99.90;;;;;;4835918;29;20249;-58
2023/03/03 12:58:03;;;;;;;3.83;2.43;;;7.40;99.90;;;;;;4836167;29;20242;-58
2023/03/03 13:00:42;;;;;;;5.17;1.80;;;7.40;99.90;;;;;;4842010;29;20282;-58
2023/03/03 13:03:21;;;;;;;4.07;1.80;;;7.50;99.90;;;;;;4863673;29;20262;-58
2023/03/03 13:06:11;;;;;;;3.27;2.27;;;7.60;99.90;;;;;;4864012;29;20234;-58
2023/03/03 13:09:11;;;;;;;2.60;1.80;;;7.60;99.90;;;;;;4860950;29;20230;-58
2023/03/03 13:12:02;;;;;;;4.27;1.77;;;7.60;99.90;;;;;;4861595;29;20242;-57
2023/03/03 13:14:39;;;;;;;3.00;1.30;;;7.60;99.90;;;;;;4852025;29;20251;-58
2023/03/03 13:17:18;;;;;;;3.13;1.20;;;7.50;99.90;;;;;;4845130;29;20246;-57